Tiempo atmosférico en la estación meteorológica de Ciudad Real, Ciudad Real (628 m.)



Fecha
DESCASC
Temp. máxima en grados centígrados (hora)
DESCASC
Temp. mínima en grados centígrados (hora)
DESCASC
Temp. media en grados centígrados
DESCASC
Racha de viento máxima en m/sg (hora)
DESCASC
Velocidad máxima media en intervalos de 10 minutos(hora)
DESCASC
Precipitaciones diarias en mm
DESCASC
Precipitaciones de 00:00 a 06:00 en mm
DESCASC
Precipitaciones de 06:00 a 12:00 en mm
DESCASC
Precipitaciones de 12:00 a 18:00 en mm
DESCASC
Precipitaciones de 18:00 a 24:00 en mm
DESCASC
23-06-2019 36.3 (18:10) 18.4 (07:30) 27.3 8.33 (18:40) 3.89 (17:20) 0 0 0 0 0
22-06-2019 34.1 (18:10) 16.2 (07:10) 25.1 7.78 (14:40) 3.61 (16:50) 0 0 0 0 0
21-06-2019 30.8 (17:40) 16.6 (07:40) 23.7 7.78 (15:30) 3.89 (15:50) 0 0 0 0 0
20-06-2019 30.3 (16:00) 16.8 (00:00) 23.5 8.89 (17:30) 3.89 (17:50) 0 0 0 0 0
19-06-2019 29.3 (17:10) 17.3 (00:00) 23.3 9.72 (17:40) 4.72 (17:50) 0 0 0 0 0
18-06-2019 31.1 (16:50) 19.1 (00:00) 25.1 11.39 (14:50) 6.11 (14:40) 0 0 0 0 0
17-06-2019 33.2 (16:40) 17 (00:00) 25.1 8.33 (17:40) 3.89 (17:50) 0 0 0 0 0
16-06-2019 31.1 (15:30) 12.7 (00:00) 21.9 7.22 (20:30) 3.33 (19:00) 0 0 0 0 0
15-06-2019 27.5 (19:10) 12.1 (00:00) 19.8 7.22 (16:40) 3.33 (18:00) 0 0 0 0 0
14-06-2019 25.7 (16:30) 15.3 (00:00) 20.5 11.11 (15:00) 5.28 (12:30) 0 0 0 0 0
13-06-2019 29.9 (16:00) 12.9 (00:00) 21.4 7.5 (15:20) 3.33 (12:50) 0 0 0 0 0
12-06-2019 28.8 (18:00) 9.6 (00:00) 19.2 8.61 (18:20) 3.89 (16:40) 0 0 0 0 0
11-06-2019 25.2 (15:10) 14.4 (00:00) 19.8 10.83 (18:30) 5 (18:40) 0 0 0 0 0
10-06-2019 28.1 (17:00) 14 (00:00) 21.1 8.89 (19:10) 4.17 (20:40) 0 0 0 0 0
09-06-2019 27.9 (16:10) 15.9 (00:00) 21.9 12.5 (17:20) 5 (17:20) 0 0 0 0 0
08-06-2019 31 (15:40) 11.1 (00:00) 21.1 10 (16:10) 4.17 (18:00) 0 0 0 0 0
07-06-2019 25.4 (19:00) 12.2 (00:00) 18.8 11.67 (06:10) 6.11 (06:00) 0 0 0 0 0
06-06-2019 27 (17:50) 11.9 (00:00) 19.4 11.94 (19:00) 5.28 (19:00) 0 0 0 0 0
05-06-2019 23 (16:50) 11.5 (00:00) 17.3 13.06 (14:00) 6.11 (13:50) 0 0 0 0 0
04-06-2019 30.7 (17:10) 19.2 (00:00) 25 11.11 (14:00) 5 (20:30) 0 0 0 0 0
03-06-2019 35.3 (17:00) 21.1 (00:00) 28.2 10.83 (18:00) 4.17 (14:50) 0 0 0 0 0
02-06-2019 35.5 (17:30) 14.7 (00:00) 25.1 6.67 (18:40) 3.06 (15:50) 0 0 0 0 0
01-06-2019 33.7 (17:10) 13.3 (00:00) 23.5 8.33 (17:40) 3.89 (18:20) 0 0 0 0 0
31-05-2019 32.3 (17:30) 13.1 (00:00) 22.7 9.44 (15:40) 4.17 (16:20) 0 0 0 0 0
30-05-2019 31 (18:20) 13.3 (00:00) 22.2 9.44 (15:10) 4.72 (19:50) 0 0 0 0 0
29-05-2019 28.8 (18:50) 12.6 (00:00) 20.7 10.83 (09:30) 5.83 (09:30) 0 0 0 0 0
28-05-2019 30.9 (16:30) 15 (00:00) 22.9 8.33 (19:40) 4.17 (17:20) 0 0 0 0 0
27-05-2019 30.9 (15:40) 13.5 (00:00) 22.2 11.11 (17:50) 4.72 (18:20) 0 0 0 0 0
26-05-2019 28.3 (18:00) 13.9 (00:00) 21.1 9.72 (16:50) 3.89 (12:50) 0 0 0 0 0
25-05-2019 25.9 (19:00) 11.6 (00:00) 18.8 10.83 (14:00) 4.44 (09:30) 0 0 0 0 0

Gráficas

Temp. máximas Temp. mínimas Temp. medias Precipitaciones Rachas de viento máximas Velocidades máximas media en intervalos de 10 minutos

Datos horarios

Fecha y hora oficial Temperatura (ºC) Velocidad del viento (km/h) Dirección del viento Racha (km/h) Dirección de racha Precipitación (mm) Presión (hPa) Tendencia (hPa) Humedad (%)
2019-06-23 23:00:00 28.9 5 Oeste 12 Oeste 0 940.4 1.4 22
2019-06-23 22:00:00 30.3 5 Oeste 17 Oeste 0 939.7 0.8 21
2019-06-23 21:00:00 32 8 Oeste 22 Oeste 0 939.3 0 18
2019-06-23 20:00:00 33.1 9 Oeste 24 Sudoeste 0 939 -0.7 17
2019-06-23 19:00:00 34.7 9 Sudoeste 30 Sudoeste 0 938.9 -1.4 17
2019-06-23 18:00:00 36.2 9 Sudoeste 29 Sur 0 939.3 -1.7 16
2019-06-23 17:00:00 35.8 11 Sur 26 Sudoeste 0 939.7 -1.8 17
2019-06-23 16:00:00 35.1 11 Sur 27 Sudoeste 0 940.3 -2 20
2019-06-23 15:00:00 34.1 10 Sur 19 Sudoeste 0 941 -1.5 21
2019-06-23 14:00:00 32.8 6 Oeste 14 Sudoeste 0 941.5 -1.3 22
2019-06-23 13:00:00 31.5 4 Norte 15 Sudoeste 0 942.3 -0.7 23
2019-06-23 12:00:00 30.2 4 Oeste 15 Sudeste 0 942.5 -0.3 23
2019-06-23 11:00:00 28 5 Sudoeste 13 Oeste 0 942.8 0.3 22
2019-06-23 10:00:00 25.5 6 Sudoeste 12 Sudoeste 0 943 0.7 27
2019-06-23 09:00:00 22.9 5 Sudoeste 11 Sudoeste 0 942.8 1.1 33
2019-06-23 08:00:00 19.2 3 Sur 7 Sudoeste 0 942.5 1.1 39
2019-06-23 07:00:00 18.9 0 Calma 10 Oeste 0 942.3 0.8 37
2019-06-23 06:00:00 21 3 Oeste 14 Sudoeste 0 941.7 0.2 32
2019-06-23 05:00:00 22 8 Sudoeste 17 Sudoeste 0 941.4 -0.2 29
2019-06-23 04:00:00 22.7 5 Sur 15 Oeste 0 941.5 -0.2 27
2019-06-23 03:00:00 23.7 9 Sudoeste 17 Sudoeste 0 941.5 -0.1 25
2019-06-23 02:00:00 24.4 7 Sudoeste 19 Sudoeste 0 941.6 0.2 23
2019-06-23 01:00:00 24.8 7 Sudoeste 13 Sur 0 941.7 1 22
2019-06-23 00:00:00 25.7 6 Sudoeste 14 Sudoeste 0 941.6 1.2 21
2019-06-22 23:00:00 27.4 5 Sudoeste 15 Sudoeste 0 941.4 1 19
2019-06-22 22:00:00 29.1 5 Sudoeste 12 Sudoeste 0 940.7 0.3 18
2019-06-22 21:00:00 30.5 5 Oeste 19 Sudoeste 0 940.4 -0.3 16
2019-06-22 20:00:00 32.7 7 Oeste 20 Oeste 0 940.4 -1 14
2019-06-22 19:00:00 33.6 10 Sudoeste 24 Sudoeste 0 940.4 -1.6 14
2019-06-22 18:00:00 34 7 Este 22 Sudoeste 0 940.7 -1.8 17
2019-06-22 17:00:00 33.4 8 Oeste 21 Sur 0 941.4 -1.8 15
2019-06-22 16:00:00 33.1 9 Sudoeste 23 Sudoeste 0 942 -1.9 16
2019-06-22 15:00:00 31.7 7 Sudeste 28 Este 0 942.5 -1.7 19
2019-06-22 14:00:00 30.7 8 Oeste 24 Oeste 0 943.2 -1.2 22
2019-06-22 13:00:00 29.7 5 Norte 11 Noroeste 0 943.9 -0.5 26
2019-06-22 12:00:00 27.5 4 Sudeste 10 Nordeste 0 944.2 -0.1 32
2019-06-22 11:00:00 23.8 4 Este 12 Nordeste 0 944.4 0.5 42
2019-06-22 10:00:00 20.9 5 Este 11 Nordeste 0 944.4 1 51
2019-06-22 09:00:00 18.2 8 Este 13 Nordeste 0 944.3 1.1 63
2019-06-22 08:00:00 16.6 6 Nordeste 10 Nordeste 0 943.9 0.6 69
2019-06-22 07:00:00 16.3 6 Este 11 Sudeste 0 943.4 0.1 68
2019-06-22 06:00:00 16.9 6 Este 11 Nordeste 0 943.2 -0.1 65
2019-06-22 05:00:00 18 6 Nordeste 13 Nordeste 0 943.3 -0.3 48
2019-06-22 04:00:00 19.8 3 Norte 21 Nordeste 0 943.3 -0.5 38
2019-06-22 03:00:00 20.7 3 Oeste 10 Oeste 0 943.3 -0.3 32
2019-06-22 02:00:00 21.5 4 Oeste 12 Sudoeste 0 943.6 0.5 29
2019-06-22 01:00:00 22.2 4 Noroeste 11 Noroeste 0 943.8 1.2 28
2019-06-22 00:00:00 23.2 4 Noroeste 13 Oeste 0 943.6 1.4 26
2019-06-21 23:00:00 24.6 5 Oeste 15 Oeste 0 943.1 1.1 23
2019-06-21 22:00:00 26.2 7 Noroeste 18 Oeste 0 942.6 0.8 21
2019-06-21 21:00:00 27.6 7 Oeste 17 Oeste 0 942.2 0.2 18
2019-06-21 20:00:00 29.9 7 Oeste 21 Noroeste 0 942 -0.2 16
2019-06-21 19:00:00 30.7 6 Noroeste 25 Noroeste 0 941.8 -0.9 15
2019-06-21 18:00:00 30.5 9 Noroeste 23 Noroeste 0 942 -1 16
2019-06-21 17:00:00 30.3 8 Oeste 26 Oeste 0 942.2 -1 17
2019-06-21 16:00:00 29.3 9 Oeste 28 Sudoeste 0 942.7 -0.9 17
2019-06-21 15:00:00 29 11 Oeste 24 Noroeste 0 943 -0.8 19
2019-06-21 14:00:00 27.9 10 Sudoeste 26 Oeste 0 943.2 -0.6 21
2019-06-21 13:00:00 26.8 10 Oeste 24 Oeste 0 943.6 -0.2 27
2019-06-21 12:00:00 25.6 10 Oeste 24 Sudoeste 0 943.8 0.2 35
2019-06-21 11:00:00 24 6 Sudoeste 15 Sudoeste 0 943.8 0.4 42
2019-06-21 10:00:00 21.7 5 Oeste 13 Oeste 0 943.8 1 48
2019-06-21 09:00:00 19.2 6 Oeste 19 Oeste 0 943.6 1.1 55
2019-06-21 08:00:00 17.1 7 Oeste 20 Oeste 0 943.4 0.7 61
2019-06-21 07:00:00 16.8 7 Oeste 18 Oeste 0 942.8 0.5 61
2019-06-21 06:00:00 17.7 11 Oeste 20 Sudoeste 0 942.5 0.1 58
2019-06-21 05:00:00 18.5 9 Oeste 20 Oeste 0 942.7 0.2 54
2019-06-21 04:00:00 19.2 10 Oeste 18 Oeste 0 942.3 0 52
2019-06-21 03:00:00 20.2 9 Oeste 20 Sudoeste 0 942.4 0.5 47
2019-06-21 02:00:00 21.2 8 Oeste 17 Oeste 0 942.5 1.1 43
2019-06-21 01:00:00 21.8 6 Oeste 17 Oeste 0 942.3 1.7 44
2019-06-21 00:00:00 22.8 9 Noroeste 20 Noroeste 0 941.9 1.8 44
2019-06-20 23:00:00 24 12 Noroeste 21 Oeste 0 941.4 1.5 41
2019-06-20 22:00:00 25.3 10 Noroeste 24 Oeste 0 940.6 0.5 36
2019-06-20 21:00:00 26.9 12 Noroeste 23 Noroeste 0 940.1 0 31
2019-06-20 20:00:00 29 12 Noroeste 30 Sudoeste 0 939.9 -0.6 27
2019-06-20 19:00:00 29.6 12 Oeste 28 Noroeste 0 940.1 -0.7 27
2019-06-20 18:00:00 30 11 Oeste 32 Oeste 0 940.1 -1.3 26
2019-06-20 17:00:00 30.1 12 Oeste 25 Oeste 0 940.5 -1.5 26
2019-06-20 16:00:00 30.1 11 Sudoeste 24 Noroeste 0 940.8 -1.5 28
2019-06-20 15:00:00 29.3 10 Oeste 24 Oeste 0 941.4 -1.1 28
2019-06-20 14:00:00 28.6 7 Sudoeste 26 Noroeste 0 942 -0.6 31
2019-06-20 13:00:00 27.9 9 Sudoeste 21 Sur 0 942.3 -0.4 35
2019-06-20 12:00:00 26.3 6 Oeste 16 Oeste 0 942.5 -0.5 37
2019-06-20 11:00:00 25.2 5 Oeste 10 Sudoeste 0 942.6 -0.3 41
2019-06-20 10:00:00 22.9 3 Oeste 9 Oeste 0 942.7 0.1 46
2019-06-20 09:00:00 20.4 3 Oeste 10 Oeste 0 943 0.4 52
2019-06-20 08:00:00 17.8 4 Oeste 9 Noroeste 0 942.9 0.3 58
2019-06-20 07:00:00 16.9 3 Sudoeste 7 Sudoeste 0 942.6 -0.2 60
2019-06-20 06:00:00 17.5 3 Sudoeste 6 Sudoeste 0 942.6 -0.5 57
2019-06-20 05:00:00 17.7 2 Sudeste 9 Oeste 0 942.6 -0.7 55
2019-06-20 04:00:00 19.1 6 Oeste 11 Oeste 0 942.8 -0.6 52
2019-06-20 03:00:00 19.5 5 Sudoeste 9 Oeste 0 943.1 -0.2 51
2019-06-20 02:00:00 20.1 4 Oeste 9 Oeste 0 943.3 0.3 48
2019-06-20 01:00:00 21.1 4 Oeste 13 Noroeste 0 943.4 0.9 45
2019-06-20 00:00:00 21.8 9 Noroeste 16 Noroeste 0 943.3 1.1 43
2019-06-19 23:00:00 22.7 8 Noroeste 20 Noroeste 0 943 0.9 41
2019-06-19 22:00:00 24 13 Noroeste 25 Noroeste 0 942.5 0.4 37
2019-06-19 21:00:00 25.8 14 Noroeste 27 Noroeste 0 942.2 -0.1 34
2019-06-19 20:00:00 28 13 Noroeste 27 Oeste 0 942.1 -0.5 29
2019-06-19 19:00:00 28.7 14 Noroeste 34 Sudoeste 0 942.1 -1 29
2019-06-19 18:00:00 28.9 12 Oeste 35 Noroeste 0 942.3 -1.3 29
2019-06-19 17:00:00 28.9 12 Oeste 29 Oeste 0 942.6 -1.5 31
2019-06-19 16:00:00 28.9 13 Oeste 32 Noroeste 0 943.1 -1.4 30
2019-06-19 15:00:00 28.3 14 Oeste 30 Oeste 0 943.6 -1 32
2019-06-19 14:00:00 27.2 10 Oeste 26 Oeste 0 944.1 -0.7 33
2019-06-19 13:00:00 25.8 10 Sudoeste 24 Oeste 0 944.5 -0.3 39
2019-06-19 12:00:00 24.1 8 Sudoeste 21 Sudoeste 0 944.6 -0.2 42
2019-06-19 11:00:00 22.7 9 Oeste 22 Oeste 0 944.8 0.3 48
2019-06-19 10:00:00 21.3 7 Noroeste 20 Sudoeste 0 944.8 0.8 52
2019-06-19 09:00:00 19.6 9 Oeste 19 Oeste 0 944.8 1 58
2019-06-19 08:00:00 17.8 10 Oeste 17 Oeste 0 944.5 0.8 64
2019-06-19 07:00:00 17.4 5 Sudoeste 17 Sudoeste 0 944 0.4 65
2019-06-19 06:00:00 18.1 8 Oeste 16 Sudoeste 0 943.8 0.1 62
2019-06-19 05:00:00 18.7 6 Oeste 16 Sudoeste 0 943.7 -0.1 60
2019-06-19 04:00:00 19.2 5 Oeste 14 Sudoeste 0 943.6 -0.3 58
2019-06-19 03:00:00 20.2 5 Oeste 15 Oeste 0 943.7 -0.1 54
2019-06-19 02:00:00 21 5 Oeste 14 Sudoeste 0 943.8 0.6 51
2019-06-19 01:00:00 21.9 6 Oeste 20 Oeste 0 943.9 1.4 46
2019-06-19 00:00:00 23.2 9 Oeste 19 Oeste 0 943.8 1.5 42
2019-06-18 23:00:00 24.4 8 Sudoeste 23 Oeste 0 943.2 1.3 32
2019-06-18 22:00:00 25.8 11 Sudoeste 23 Oeste 0 942.5 0.9 24
2019-06-18 21:00:00 27.2 13 Sudoeste 30 Oeste 0 942.3 0.6 17
2019-06-18 20:00:00 29.5 14 Sudoeste 37 Sudoeste 0 941.9 0.1 13
2019-06-18 19:00:00 30.4 15 Sudoeste 36 Sudoeste 0 941.6 -0.5 11
2019-06-18 18:00:00 30.6 18 Oeste 39 Oeste 0 941.7 -0.8 13
2019-06-18 17:00:00 31 14 Sudoeste 39 Oeste 0 941.8 -1 16
2019-06-18 16:00:00 30.8 15 Sudoeste 37 Oeste 0 942.1 -1.1 16
2019-06-18 15:00:00 30.2 15 Sudoeste 41 Sudoeste 0 942.5 -0.9 19
2019-06-18 14:00:00 29.8 14 Sudoeste 35 Sudoeste 0 942.8 -0.8 22
2019-06-18 13:00:00 29.1 12 Sudoeste 28 Sur 0 943.2 -0.5 21
2019-06-18 12:00:00 28 7 Sudoeste 25 Sudoeste 0 943.4 -0.4 23
2019-06-18 11:00:00 26.4 11 Sudoeste 22 Sudoeste 0 943.6 0 23
2019-06-18 10:00:00 24.4 8 Oeste 17 Sudoeste 0 943.7 0.4 28
2019-06-18 09:00:00 21.8 4 Oeste 9 Oeste 0 943.8 0.7 32
2019-06-18 08:00:00 19.5 3 Noroeste 8 Sudoeste 0 943.6 0.7 33
2019-06-18 07:00:00 19.3 6 Sudoeste 12 Oeste 0 943.3 0.2 30
2019-06-18 06:00:00 19.8 7 Sudoeste 12 Sudoeste 0 943.1 -0.1 26
2019-06-18 05:00:00 19.8 6 Sudoeste 10 Sudoeste 0 942.9 -0.3 25
2019-06-18 04:00:00 21 4 Sudoeste 13 Oeste 0 943.1 -0.1 23
2019-06-18 03:00:00 22.1 4 Sudoeste 13 Sudoeste 0 943.2 0.2 22
2019-06-18 02:00:00 23.5 7 Sudoeste 17 Sudoeste 0 943.2 0.5 21
2019-06-18 01:00:00 24.4 8 Sudoeste 17 Sudoeste 0 943.2 1 20
2019-06-18 00:00:00 25.7 7 Sudoeste 19 Oeste 0 943 1 18
2019-06-17 23:00:00 26.8 9 Sudoeste 20 Sudoeste 0 942.7 0.9 17
2019-06-17 22:00:00 27.8 9 Sudoeste 22 Sudoeste 0 942.2 0.6 15
2019-06-17 21:00:00 29.2 12 Sudoeste 26 Sudoeste 0 942 0.1 14
2019-06-17 20:00:00 31.6 10 Sudoeste 25 Oeste 0 941.8 -0.5 13
2019-06-17 19:00:00 32.7 10 Sudoeste 24 Sur 0 941.6 -1.4 14
2019-06-17 18:00:00 32.6 9 Sudoeste 30 Sudoeste 0 941.9 -2 14
2019-06-17 17:00:00 33.2 8 Sur 24 Sudeste 0 942.3 -2.6 15
2019-06-17 16:00:00 32.6 8 Sudeste 23 Sur 0 943 -2.4 15
2019-06-17 15:00:00 31.3 8 Sur 16 Sudeste 0 943.9 -1.9 18
2019-06-17 14:00:00 29.7 8 Oeste 15 Oeste 0 944.9 -1.1 21
2019-06-17 13:00:00 29.1 9 Sudeste 18 Sur 0 945.4 -1 23
2019-06-17 12:00:00 26.9 5 Oeste 13 Oeste 0 945.8 -0.5 24
2019-06-17 11:00:00 24.7 5 Oeste 13 Oeste 0 946 -0.1 29
2019-06-17 10:00:00 22.5 5 Oeste 12 Noroeste 0 946.4 0.7 31
2019-06-17 09:00:00 20.3 5 Sudoeste 14 Sudoeste 0 946.3 0.7 34
2019-06-17 08:00:00 17.8 5 Sudoeste 12 Oeste 0 946.1 0.6 40
2019-06-17 07:00:00 17.1 5 Oeste 13 Oeste 0 945.7 0 40
2019-06-17 06:00:00 17.7 5 Oeste 13 Oeste 0 945.6 -0.1 38
2019-06-17 05:00:00 18.5 5 Oeste 17 Oeste 0 945.5 -0.1 36
2019-06-17 04:00:00 19.3 9 Sudoeste 16 Sudoeste 0 945.7 -0.1 35
2019-06-17 03:00:00 20.2 7 Sudoeste 19 Sudoeste 0 945.7 0 33
2019-06-17 02:00:00 21 11 Sudoeste 20 Sudoeste 0 945.6 0.3 30
2019-06-17 01:00:00 21.1 5 Oeste 13 Sudoeste 0 945.8 1.2 28
2019-06-17 00:00:00 22.6 6 Sudoeste 13 Sudoeste 0 945.7 1.5 25
2019-06-16 23:00:00 24.1 6 Sudoeste 17 Sudoeste 0 945.3 1.3 24
2019-06-16 22:00:00 25.9 9 Sudoeste 24 Sudoeste 0 944.6 0.8 22
2019-06-16 21:00:00 27.6 10 Sudoeste 26 Sur 0 944.2 0.5 19
2019-06-16 20:00:00 29.1 10 Sudoeste 25 Sur 0 944 0 15
2019-06-16 19:00:00 30.3 12 Sudoeste 25 Oeste 0 943.8 -0.5 16
2019-06-16 18:00:00 30.7 8 Sudoeste 22 Sudoeste 0 943.7 -1.1 14
2019-06-16 17:00:00 30.2 9 Oeste 25 Sudoeste 0 944 -1.6 14
2019-06-16 16:00:00 30.7 10 Oeste 24 Sudoeste 0 944.3 -1.7 13
2019-06-16 15:00:00 30.8 6 Sur 22 Sudoeste 0 944.8 -1.4 15
2019-06-16 14:00:00 29.1 4 Sur 13 Sur 0 945.6 -0.8 17
2019-06-16 13:00:00 26.7 4 Sudoeste 13 Sudoeste 0 946 -0.4 22
2019-06-16 12:00:00 25 3 Noroeste 12 Nordeste 0 946.2 0 27
2019-06-16 11:00:00 21.7 6 Nordeste 13 Nordeste 0 946.4 0.5 29
2019-06-16 10:00:00 19.3 8 Nordeste 15 Este 0 946.4 0.8 32
2019-06-16 09:00:00 16.7 7 Nordeste 16 Nordeste 0 946.2 0.9 36
2019-06-16 08:00:00 13.4 4 Nordeste 11 Nordeste 0 945.9 0.5 43
2019-06-16 07:00:00 12.7 3 Nordeste 5 Nordeste 0 945.6 0 45
2019-06-16 06:00:00 13.5 0 Calma 5 Este 0 945.3 -0.7 42
2019-06-16 05:00:00 14.1 3 Este 4 Este 0 945.4 -1.2 39
2019-06-16 04:00:00 15.4 0 Calma 5 Oeste 0 945.6 -1.2 38
2019-06-16 03:00:00 17 0 Calma 8 Sudoeste 0 946 -0.5 35
2019-06-16 02:00:00 17.4 4 Sudoeste 7 Sudoeste 0 946.6 0.2 32
2019-06-16 01:00:00 19 5 Norte 13 Noroeste 0 946.8 1 29
2019-06-16 00:00:00 20.3 7 Noroeste 17 Oeste 0 946.5 1 26
2019-06-15 23:00:00 21.6 10 Noroeste 19 Oeste 0 946.4 1.2 24
2019-06-15 22:00:00 23.1 4 Noroeste 16 Oeste 0 945.8 0.6 23
2019-06-15 21:00:00 24.5 6 Oeste 22 Noroeste 0 945.5 0.1 21
2019-06-15 20:00:00 26.8 9 Noroeste 20 Noroeste 0 945.2 -0.6 18
2019-06-15 19:00:00 27.4 9 Oeste 20 Oeste 0 945.2 -1.1 19
2019-06-15 18:00:00 27 12 Oeste 22 Oeste 0 945.4 -1.3 18
2019-06-15 17:00:00 26.6 6 Oeste 26 Sudoeste 0 945.8 -1.4 20
2019-06-15 16:00:00 25.7 8 Oeste 21 Sudoeste 0 946.3 -1.2 20
2019-06-15 15:00:00 24.2 9 Oeste 22 Noroeste 0 946.7 -1.1 23
2019-06-15 14:00:00 23.4 8 Oeste 21 Sudoeste 0 947.2 -0.5 27
2019-06-15 13:00:00 22.1 6 Noroeste 22 Noroeste 0 947.5 -0.4 28
2019-06-15 12:00:00 21 5 Sudoeste 19 Noroeste 0 947.8 0.3 33
2019-06-15 11:00:00 19.2 8 Sudoeste 17 Sudoeste 0 947.7 0.5 38
2019-06-15 10:00:00 17.4 6 Oeste 13 Oeste 0 947.9 1 45
2019-06-15 09:00:00 15.8 4 Oeste 10 Oeste 0 947.5 1.1 49
2019-06-15 08:00:00 13.1 4 Sudoeste 11 Oeste 0 947.2 1 56
2019-06-15 07:00:00 12.2 5 Sudoeste 12 Sudoeste 0 946.9 0.8 57
2019-06-15 06:00:00 12.6 6 Sudoeste 13 Oeste 0 946.4 0.1 54
2019-06-15 05:00:00 13.2 6 Sudoeste 12 Oeste 0 946.2 0 51
2019-06-15 04:00:00 13.8 7 Oeste 12 Sudoeste 0 946.1 0 49
2019-06-15 03:00:00 14.5 5 Sudoeste 15 Sudoeste 0 946.3 0.5 46
2019-06-15 02:00:00 15.1 6 Oeste 14 Oeste 0 946.2 1 44
2019-06-15 01:00:00 15.8 6 Oeste 19 Sudoeste 0 946.1 1.9 42
2019-06-15 00:00:00 16.4 6 Oeste 18 Oeste 0 945.8 2.4 40
2019-06-14 23:00:00 17.5 8 Oeste 21 Oeste 0 945.2 2.6 37
2019-06-14 22:00:00 18.9 11 Oeste 35 Noroeste 0 944.2 2.4 33
2019-06-14 21:00:00 20.5 19 Noroeste 37 Noroeste 0 943.4 1.6 31
2019-06-14 20:00:00 23 18 Oeste 36 Oeste 0 942.6 0.8 27
2019-06-14 19:00:00 24.8 14 Oeste 35 Oeste 0 941.8 -0.1 23
2019-06-14 18:00:00 25.2 16 Oeste 36 Oeste 0 941.8 0 24
2019-06-14 17:00:00 25.5 13 Oeste 36 Oeste 0 941.8 -0.2 26
2019-06-14 16:00:00 25.4 13 Sudoeste 39 Oeste 0 941.9 -0.1 25
2019-06-14 15:00:00 24.8 15 Oeste 40 Oeste 0 941.8 0 26
2019-06-14 14:00:00 23.7 14 Oeste 35 Sudoeste 0 942 0.3 31
2019-06-14 13:00:00 23.5 15 Sudoeste 40 Oeste 0 942 0.4 31
2019-06-14 12:00:00 22.9 14 Sudoeste 33 Oeste 0 941.8 0.3 32
2019-06-14 11:00:00 21.3 10 Sudoeste 26 Oeste 0 941.7 1 37
2019-06-14 10:00:00 19 8 Sudoeste 19 Sur 0 941.6 1.4 37
2019-06-14 09:00:00 16.6 7 Sudoeste 18 Sudoeste 0 941.5 1.5 42
2019-06-14 08:00:00 15.9 6 Oeste 18 Oeste 0 940.7 1.3 41
2019-06-14 07:00:00 15.7 7 Oeste 15 Noroeste 0 940.2 0.6 38
2019-06-14 06:00:00 16.1 6 Oeste 13 Oeste 0 940 0.9 36
2019-06-14 05:00:00 17.4 5 Oeste 18 Noroeste 0 939.4 0.1 33
2019-06-14 04:00:00 19 10 Oeste 26 Sudoeste 0 939.6 0.7 31
2019-06-14 03:00:00 20.1 6 Oeste 19 Oeste 0 939.1 0.4 31
2019-06-14 02:00:00 21 6 Oeste 18 Oeste 0 939.3 1.4 30
2019-06-14 01:00:00 21.7 9 Oeste 21 Sudoeste 0 938.9 2 30
2019-06-14 00:00:00 22.8 8 Oeste 19 Oeste 0 938.7 2.3 28
2019-06-13 23:00:00 24.2 7 Oeste 26 Sudoeste 0 937.9 1.8 30
2019-06-13 22:00:00 25.2 10 Oeste 19 Sudoeste 0 936.9 0.9 30
2019-06-13 21:00:00 26.6 10 Sudoeste 20 Sudoeste 0 936.4 0.1 28
2019-06-13 20:00:00 27.6 9 Sudoeste 20 Sudoeste 0 936.1 -0.6 27
2019-06-13 19:00:00 28.3 9 Sudoeste 27 Sudoeste 0 936 -1.1 25
2019-06-13 18:00:00 28.4 9 Sudoeste 23 Sudoeste 0 936.3 -1.3 25
2019-06-13 17:00:00 28.8 5 Sur 22 Oeste 0 936.7 -1.5 25
2019-06-13 16:00:00 29.9 8 Sur 27 Oeste 0 937.1 -1.3 23
2019-06-13 15:00:00 29.2 11 Sur 25 Oeste 0 937.6 -1.4 25
2019-06-13 14:00:00 27.3 8 Sudoeste 21 Sudoeste 0 938.2 -0.9 30
2019-06-13 13:00:00 25.8 6 Oeste 22 Noroeste 0 938.4 -1 32
2019-06-13 12:00:00 24.7 4 Sudoeste 14 Sudoeste 0 939 -0.2 32
2019-06-13 11:00:00 23 5 Oeste 14 Sudoeste 0 939.1 0.4 30
2019-06-13 10:00:00 20.4 4 Oeste 10 Sur 0 939.4 0.9 36
2019-06-13 09:00:00 17.3 4 Oeste 9 Sudoeste 0 939.2 1 33
2019-06-13 08:00:00 13.8 0 Calma 5 Norte 0 938.7 0.8 49
2019-06-13 07:00:00 12.9 0 Calma 8 Norte 0 938.5 0.8 45
2019-06-13 06:00:00 13.7 3 Norte 9 Oeste 0 938.2 0.4 35
2019-06-13 05:00:00 14.5 0 Calma 7 Norte 0 937.9 -0.1 34
2019-06-13 04:00:00 15.3 3 Norte 10 Sur 0 937.7 -0.7 29
2019-06-13 03:00:00 17 4 Sur 7 Sur 0 937.8 -0.6 26
2019-06-13 02:00:00 17.8 4 Oeste 8 Oeste 0 938 -0.1 22
2019-06-13 01:00:00 19 3 Sudoeste 7 Sudoeste 0 938.4 1.1 21
2019-06-13 00:00:00 20.4 3 Sudoeste 7 Oeste 0 938.4 1.3 20
2019-06-12 23:00:00 22.4 6 Oeste 19 Noroeste 0 938.1 1 17
2019-06-12 22:00:00 24 6 Noroeste 15 Noroeste 0 937.3 0 17
2019-06-12 21:00:00 25.5 8 Noroeste 21 Oeste 0 937.1 -0.8 17
2019-06-12 20:00:00 27.4 10 Noroeste 28 Oeste 0 937.1 -1.1 14
2019-06-12 19:00:00 28.2 9 Oeste 31 Noroeste 0 937.3 -1.4 13
2019-06-12 18:00:00 28.7 8 Oeste 28 Oeste 0 937.9 -1.5 13
2019-06-12 17:00:00 28 11 Sudeste 28 Oeste 0 938.2 -2.1 14
2019-06-12 16:00:00 27.3 11 Sudoeste 26 Sur 0 938.7 -2.3 15
2019-06-12 15:00:00 26.1 7 Norte 28 Noroeste 0 939.4 -2 18
2019-06-12 14:00:00 25.1 6 Sudoeste 18 Oeste 0 940.3 -1.2 20
2019-06-12 13:00:00 24 7 Oeste 19 Noroeste 0 941 -0.7 21
2019-06-12 12:00:00 23.1 6 Sudeste 14 Nordeste 0 941.4 -0.3 26
2019-06-12 11:00:00 20.1 6 Nordeste 13 Nordeste 0 941.5 0.1 41
2019-06-12 10:00:00 17.1 5 Este 13 Nordeste 0 941.7 0.5 48
2019-06-12 09:00:00 14 8 Este 15 Nordeste 0 941.7 0.7 61
2019-06-12 08:00:00 10.7 6 Este 13 Nordeste 0 941.4 0.6 72
2019-06-12 07:00:00 9.7 5 Este 9 Este 0 941.2 0.2 69
2019-06-12 06:00:00 10.4 5 Nordeste 12 Nordeste 0 941 -0.1 62
2019-06-12 05:00:00 10.8 4 Nordeste 13 Norte 0 940.8 -0.5 48
2019-06-12 04:00:00 11.5 4 Nordeste 14 Nordeste 0 941 -0.7 35
2019-06-12 03:00:00 12.2 4 Nordeste 14 Nordeste 0 941.1 -0.5 34
2019-06-12 02:00:00 13.2 3 Nordeste 10 Noroeste 0 941.3 -0.3 33
2019-06-12 01:00:00 14.5 4 Nordeste 14 Nordeste 0 941.7 0.8 32
2019-06-12 00:00:00 15.6 5 Nordeste 13 Nordeste 0 941.6 1.1 31
2019-06-11 23:00:00 17.1 5 Nordeste 12 Nordeste 0 941.6 1.5 29
2019-06-11 22:00:00 18.9 4 Norte 18 Nordeste 0 940.9 1.2 28
2019-06-11 21:00:00 20.3 11 Nordeste 25 Norte 0 940.5 1 28
2019-06-11 20:00:00 22 12 Nordeste 33 Nordeste 0 940.1 1 28
2019-06-11 19:00:00 22.5 13 Norte 39 Nordeste 0 939.7 0.7 29
2019-06-11 18:00:00 23.1 17 Nordeste 36 Nordeste 0 939.5 0.8 29
2019-06-11 17:00:00 24.2 13 Norte 38 Nordeste 0 939.1 0.2 29
2019-06-11 16:00:00 23.9 14 Norte 38 Nordeste 0 939 0 28
2019-06-11 15:00:00 24.4 10 Noroeste 21 Noroeste 0 938.7 -0.4 28
2019-06-11 14:00:00 23.6 5 Este 24 Oeste 0 938.9 -0.5 31
2019-06-11 13:00:00 23.5 9 Noroeste 22 Norte 0 939 -0.2 32
2019-06-11 12:00:00 21.9 6 Noroeste 18 Noroeste 0 939.1 -0.2 34
2019-06-11 11:00:00 20.1 8 Oeste 19 Oeste 0 939.4 0.2 37
2019-06-11 10:00:00 18.5 9 Oeste 17 Oeste 0 939.2 -0.2 39
2019-06-11 09:00:00 16.9 9 Oeste 21 Sudoeste 0 939.3 0 43
2019-06-11 08:00:00 15.2 5 Sudoeste 14 Oeste 0 939.2 -0.3 47
2019-06-11 07:00:00 14.7 4 Sudoeste 18 Sudoeste 0 939.4 -0.5 47
2019-06-11 06:00:00 15.4 8 Oeste 16 Sudoeste 0 939.3 -1.1 43
2019-06-11 05:00:00 16.1 8 Sudoeste 19 Sudoeste 0 939.5 -1.1 39
2019-06-11 04:00:00 16.9 6 Oeste 17 Noroeste 0 939.9 -1.2 35
2019-06-11 03:00:00 18 5 Oeste 16 Sudoeste 0 940.4 -1 28
2019-06-11 02:00:00 19 7 Oeste 20 Sudoeste 0 940.6 -0.9 25
2019-06-11 01:00:00 19.6 6 Oeste 19 Sudoeste 0 941.1 0.1 26
2019-06-11 00:00:00 20.6 8 Oeste 19 Sudoeste 0 941.4 0.7 26
2019-06-10 23:00:00 21.8 7 Oeste 22 Sudoeste 0 941.5 0.8 24
2019-06-10 22:00:00 23.4 11 Oeste 23 Oeste 0 941 0 25
2019-06-10 21:00:00 24.8 9 Oeste 26 Sudoeste 0 940.7 -0.7 25
2019-06-10 20:00:00 26.6 11 Oeste 32 Noroeste 0 940.7 -0.8 22
2019-06-10 19:00:00 27.6 11 Oeste 23 Oeste 0 941 -1.3 21
2019-06-10 18:00:00 27.8 10 Noroeste 24 Noroeste 0 941.4 -1.6 22
2019-06-10 17:00:00 28 8 Sudoeste 26 Oeste 0 941.5 -2.1 22
2019-06-10 16:00:00 26.9 4 Oeste 20 Sur 0 942.3 -1.9 22
2019-06-10 15:00:00 25.7 7 Oeste 26 Noroeste 0 943 -1.3 24
2019-06-10 14:00:00 24.7 8 Noroeste 22 Noroeste 0 943.6 -1.1 26
2019-06-10 13:00:00 24.6 8 Noroeste 19 Noroeste 0 944.2 -0.4 26
2019-06-10 12:00:00 23.4 4 Oeste 15 Norte 0 944.3 -0.3 30
2019-06-10 11:00:00 21.6 6 Oeste 17 Oeste 0 944.7 -0.2 34
2019-06-10 10:00:00 19.7 7 Oeste 11 Oeste 0 944.6 0.4 41
2019-06-10 09:00:00 17.2 5 Oeste 14 Oeste 0 944.6 0.5 47
2019-06-10 08:00:00 14.9 6 Oeste 14 Oeste 0 944.9 0.5 52
2019-06-10 07:00:00 14.2 6 Oeste 13 Oeste 0 944.2 -0.7 53
2019-06-10 06:00:00 15 4 Oeste 18 Sudoeste 0 944.1 -0.7 49
2019-06-10 05:00:00 15.7 10 Sudoeste 15 Sudoeste 0 944.4 -0.4 47
2019-06-10 04:00:00 16.4 4 Oeste 14 Noroeste 0 944.9 0.1 43
2019-06-10 03:00:00 17.4 6 Oeste 23 Oeste 0 944.8 0.2 40
2019-06-10 02:00:00 18 6 Oeste 20 Sudoeste 0 944.8 0.4 39
2019-06-10 01:00:00 19 9 Noroeste 22 Oeste 0 944.8 0.9 37
2019-06-10 00:00:00 19.9 9 Noroeste 24 Noroeste 0 944.6 1 33
2019-06-09 23:00:00 21 9 Oeste 23 Oeste 0 944.4 1.2 28
2019-06-09 22:00:00 22.2 12 Oeste 32 Noroeste 0 943.9 1 24
2019-06-09 21:00:00 23.7 15 Noroeste 34 Oeste 0 943.6 0.5 20
2019-06-09 20:00:00 26 13 Noroeste 37 Oeste 0 943.2 0 18
2019-06-09 19:00:00 27.2 16 Oeste 40 Oeste 0 942.9 -0.8 14
2019-06-09 18:00:00 27.4 15 Oeste 45 Noroeste 0 943.1 -1 16
2019-06-09 17:00:00 27.6 16 Oeste 36 Noroeste 0 943.2 -1.5 18
2019-06-09 16:00:00 27.8 11 Oeste 32 Oeste 0 943.7 -1.3 19
2019-06-09 15:00:00 26.9 12 Oeste 34 Sudoeste 0 944.1 -1.3 25
2019-06-09 14:00:00 26.2 14 Oeste 32 Oeste 0 944.7 -0.7 26
2019-06-09 13:00:00 25.4 11 Oeste 26 Sudoeste 0 945 -0.6 27
2019-06-09 12:00:00 24 10 Oeste 24 Oeste 0 945.4 0 28
2019-06-09 11:00:00 23.4 8 Noroeste 22 Noroeste 0 945.4 0.1 27
2019-06-09 10:00:00 21.2 8 Oeste 15 Sudoeste 0 945.6 0.6 33
2019-06-09 09:00:00 18.6 9 Oeste 18 Sudoeste 0 945.4 0.6 39
2019-06-09 08:00:00 16.5 10 Oeste 19 Sudoeste 0 945.3 0.4 40
2019-06-09 07:00:00 16.1 9 Oeste 20 Sudoeste 0 945 0.3 36
2019-06-09 06:00:00 17.2 11 Oeste 20 Sudoeste 0 944.8 0.1 31
2019-06-09 05:00:00 18.6 10 Sudoeste 15 Sudoeste 0 944.9 0 28
2019-06-09 04:00:00 19.7 9 Sudoeste 19 Sudoeste 0 944.7 -0.3 25
2019-06-09 03:00:00 20.7 10 Oeste 17 Oeste 0 944.7 -0.3 24
2019-06-09 02:00:00 21.8 5 Oeste 11 Oeste 0 944.9 0.4 22
2019-06-09 01:00:00 22.4 6 Sudoeste 10 Sudoeste 0 945 1.1 21
2019-06-09 00:00:00 23.2 4 Noroeste 13 Noroeste 0 945 1.6 20
2019-06-08 23:00:00 24.6 6 Oeste 14 Sudoeste 0 944.5 1.1 18
2019-06-08 22:00:00 25.7 7 Oeste 17 Oeste 0 943.9 0.5 20
2019-06-08 21:00:00 26.7 8 Oeste 24 Sudoeste 0 943.4 -0.4 20
2019-06-08 20:00:00 27.7 14 Sudoeste 27 Sudoeste 0 943.4 -0.5 19
2019-06-08 19:00:00 28.9 11 Sudoeste 27 Sudoeste 0 943.4 -0.9 18
2019-06-08 18:00:00 29.3 15 Sudoeste 34 Sudoeste 0 943.8 -0.7 17
2019-06-08 17:00:00 29.7 10 Sudoeste 36 Oeste 0 943.9 -1.2 17
2019-06-08 16:00:00 30.2 13 Sudoeste 36 Sudoeste 0 944.3 -1.3 16
2019-06-08 15:00:00 30.5 9 Sudoeste 29 Sudoeste 0 944.5 -1.6 17
2019-06-08 14:00:00 28 4 Noroeste 22 Sur 0 945.1 -1.5 20
2019-06-08 13:00:00 27.3 9 Oeste 16 Noroeste 0 945.6 -1.1 23
2019-06-08 12:00:00 24.6 5 Sur 14 Sudeste 0 946.1 -0.3 23
2019-06-08 11:00:00 21.6 7 Sudeste 14 Este 0 946.6 0.3 24
2019-06-08 10:00:00 18.4 7 Este 15 Este 0 946.7 0.3 31
2019-06-08 09:00:00 15.2 10 Este 18 Este 0 946.4 0 39
2019-06-08 08:00:00 12.3 4 Nordeste 9 Nordeste 0 946.3 -0.2 38
2019-06-08 07:00:00 11.2 3 Sudeste 8 Nordeste 0 946.4 -0.3 39
2019-06-08 06:00:00 11.7 3 Nordeste 7 Norte 0 946.4 -0.5 37
2019-06-08 05:00:00 12.7 3 Nordeste 6 Norte 0 946.5 -0.5 34
2019-06-08 04:00:00 13.2 3 Norte 5 Norte 0 946.7 -0.3 33
2019-06-08 03:00:00 14 2 Norte 4 Este 0 946.9 0 32
2019-06-08 02:00:00 15.5 2 Este 7 Norte 0 947 0.6 29
2019-06-08 01:00:00 16.9 4 Norte 8 Noroeste 0 947 1.2 26
2019-06-08 00:00:00 18.1 5 Noroeste 9 Noroeste 0 946.9 1.5 24
2019-06-07 23:00:00 19.7 4 Noroeste 9 Noroeste 0 946.4 1.4 21
2019-06-07 22:00:00 21.1 7 Noroeste 14 Noroeste 0 945.8 1 19
2019-06-07 21:00:00 22.2 4 Oeste 12 Oeste 0 945.4 0.6 17
2019-06-07 20:00:00 24.4 6 Oeste 18 Oeste 0 945 0 15
2019-06-07 19:00:00 25.1 8 Sudoeste 19 Sudoeste 0 944.8 -0.2 15
2019-06-07 18:00:00 24.6 5 Oeste 24 Noroeste 0 944.8 -0.1 16
2019-06-07 17:00:00 24.5 6 Sur 23 Sudoeste 0 945 0 16
2019-06-07 16:00:00 23.5 7 Oeste 25 Norte 0 945 -0.1 19
2019-06-07 15:00:00 22.2 11 Noroeste 26 Noroeste 0 944.9 0 24
2019-06-07 14:00:00 21.4 7 Oeste 27 Oeste 0 945 0.3 25
2019-06-07 13:00:00 19.3 8 Oeste 23 Oeste 0 945.1 0.6 29
2019-06-07 12:00:00 17.9 10 Oeste 27 Noroeste 0 944.9 1.4 34
2019-06-07 11:00:00 16.4 10 Oeste 23 Noroeste 0 944.7 2 39
2019-06-07 10:00:00 14.7 7 Oeste 26 Oeste 0 944.5 2.6 47
2019-06-07 09:00:00 13.8 12 Oeste 26 Sudoeste 0 943.5 2.3 55
2019-06-07 08:00:00 12.5 10 Oeste 22 Oeste 0 942.7 2.5 63
2019-06-07 07:00:00 12.2 8 Oeste 42 Oeste 0 941.9 2 69
2019-06-07 06:00:00 13.1 22 Noroeste 39 Noroeste 0 941.2 1.4 73
2019-06-07 05:00:00 15.7 15 Sudoeste 30 Oeste 0 940.2 0.5 69
2019-06-07 04:00:00 16.3 16 Oeste 35 Oeste 0 939.9 0.3 59
2019-06-07 03:00:00 16.4 10 Sudoeste 22 Sudoeste 0 939.8 0.7 45
2019-06-07 02:00:00 17.2 10 Sudoeste 21 Sudoeste 0 939.7 1.2 34
2019-06-07 01:00:00 18.7 8 Sudoeste 24 Sudoeste 0 939.6 1.7 35
2019-06-07 00:00:00 19.5 13 Sudoeste 23 Sudoeste 0 939.1 1.6 29
2019-06-06 23:00:00 20.6 9 Sudoeste 23 Sudoeste 0 938.5 1.2 24
2019-06-06 22:00:00 22 9 Sudoeste 32 Sudoeste 0 937.9 0.6 22
2019-06-06 21:00:00 23.4 15 Sudoeste 37 Oeste 0 937.5 -0.3 20
2019-06-06 20:00:00 25.1 17 Sudoeste 41 Sudoeste 0 937.3 -1 18
2019-06-06 19:00:00 26.3 19 Sudoeste 43 Oeste 0 937.3 -1.7 17
2019-06-06 18:00:00 27 18 Sudoeste 40 Sudoeste 0 937.8 -2 18
2019-06-06 17:00:00 26.7 13 Sudoeste 32 Sudoeste 0 938.3 -2.2 18
2019-06-06 16:00:00 26.2 10 Oeste 36 Oeste 0 939 -2.2 20
2019-06-06 15:00:00 24.9 9 Sur 33 Oeste 0 939.8 -1.9 21
2019-06-06 14:00:00 23.9 11 Sudoeste 34 Sudoeste 0 940.5 -1.4 24
2019-06-06 13:00:00 22.4 13 Sudoeste 29 Sur 0 941.2 -1 26
2019-06-06 12:00:00 21.2 10 Sudoeste 21 Sur 0 941.7 -0.8 30
2019-06-06 11:00:00 19.5 8 Sudoeste 16 Sudoeste 0 941.9 -0.6 32
2019-06-06 10:00:00 17.2 5 Oeste 14 Sudoeste 0 942.2 -0.2 37
2019-06-06 09:00:00 14.9 8 Oeste 13 Oeste 0 942.5 0.1 42
2019-06-06 08:00:00 12.7 4 Sudoeste 12 Sudoeste 0 942.5 0.3 47
2019-06-06 07:00:00 11.9 5 Sudoeste 12 Sudoeste 0 942.4 0.1 49
2019-06-06 06:00:00 12.5 5 Sudoeste 10 Sudoeste 0 942.4 0.1 46
2019-06-06 05:00:00 13.2 5 Sudoeste 13 Sudoeste 0 942.2 -0.4 44
2019-06-06 04:00:00 13.8 5 Oeste 15 Sudoeste 0 942.3 -0.4 42
2019-06-06 03:00:00 14.7 7 Oeste 17 Sudoeste 0 942.3 -0.5 38
2019-06-06 02:00:00 15.4 8 Oeste 15 Oeste 0 942.6 0 36
2019-06-06 01:00:00 16.1 8 Oeste 15 Oeste 0 942.7 0.7 34
2019-06-06 00:00:00 16.7 6 Sudoeste 17 Sudoeste 0 942.8 1.3 33
2019-06-05 23:00:00 17.3 8 Oeste 18 Oeste 0 942.6 1.4 31
2019-06-05 22:00:00 18.4 10 Oeste 20 Oeste 0 942 0.9 29
2019-06-05 21:00:00 19.6 8 Noroeste 33 Oeste 0 941.5 0.5 26
2019-06-05 20:00:00 21.1 13 Oeste 36 Oeste 0 941.2 0 23
2019-06-05 19:00:00 22 14 Oeste 33 Noroeste 0 941.1 -0.4 24
2019-06-05 18:00:00 22.5 15 Oeste 32 Oeste 0 941 -0.6 23
2019-06-05 17:00:00 22.6 14 Noroeste 35 Oeste 0 941.2 -0.5 23
2019-06-05 16:00:00 21.5 12 Oeste 36 Sudoeste 0 941.5 -0.3 25
2019-06-05 15:00:00 21.8 21 Noroeste 42 Noroeste 0 941.6 0.1 26
2019-06-05 14:00:00 21 21 Noroeste 47 Noroeste 0 941.7 0.2 27
2019-06-05 13:00:00 20.2 14 Oeste 36 Noroeste 0 941.8 0.4 29
2019-06-05 12:00:00 18.8 13 Oeste 31 Sudoeste 0 941.5 0.9 35
2019-06-05 11:00:00 16.8 13 Oeste 36 Sudoeste 0 941.5 1.2 41
2019-06-05 10:00:00 15.4 15 Oeste 32 Sudoeste 0 941.4 1.6 47
2019-06-05 09:00:00 13.6 13 Oeste 32 Oeste 0 940.6 1.2 55
2019-06-05 08:00:00 12 13 Oeste 30 Sudoeste 0 940.3 1.5 64
2019-06-05 07:00:00 11.7 12 Sudoeste 35 Oeste 0 939.8 1 64
2019-06-05 06:00:00 13.1 10 Oeste 36 Sudoeste 0 939.4 0.7 57
2019-06-05 05:00:00 15.4 14 Oeste 36 Oeste 0 938.8 0.3 52
2019-06-05 04:00:00 16.4 14 Oeste 33 Oeste 0 938.8 0.3 55
2019-06-05 03:00:00 17.3 12 Oeste 33 Sudoeste 0 938.7 0.4 55
2019-06-05 02:00:00 19.1 14 Oeste 32 Oeste 0 938.5 0.4 54
2019-06-05 01:00:00 20.3 11 Oeste 30 Sudoeste 0 938.5 1.3 53
2019-06-05 00:00:00 21.2 10 Oeste 21 Sudoeste 0 938.3 1.4 47
2019-06-04 23:00:00 22.3 7 Oeste 31 Noroeste 0 938.1 1.2 43
2019-06-04 22:00:00 23.8 14 Oeste 28 Oeste 0 937.2 0.3 39
2019-06-04 21:00:00 26.1 11 Noroeste 33 Noroeste 0 936.9 -0.6 33
2019-06-04 20:00:00 28.3 15 Noroeste 32 Oeste 0 936.9 -1.2 28
2019-06-04 19:00:00 30 14 Oeste 38 Oeste 0 936.9 -1.8 26
2019-06-04 18:00:00 30.1 16 Oeste 36 Oeste 0 937.5 -2.1 24
2019-06-04 17:00:00 30.5 15 Oeste 36 Oeste 0 938.1 -2.2 24
2019-06-04 16:00:00 30.2 17 Oeste 36 Noroeste 0 938.7 -2.1 25
2019-06-04 15:00:00 29.5 17 Sudoeste 37 Oeste 0 939.6 -1.5 27
2019-06-04 14:00:00 29.1 15 Oeste 40 Oeste 0 940.3 -1 28
2019-06-04 13:00:00 28.4 12 Sudoeste 33 Oeste 0 940.8 -0.8 26
2019-06-04 12:00:00 27.1 9 Oeste 27 Oeste 0 941.1 -0.4 35
2019-06-04 11:00:00 25.6 8 Oeste 19 Sudoeste 0 941.3 -0.1 42
2019-06-04 10:00:00 23.3 9 Oeste 19 Oeste 0 941.6 0.2 52
2019-06-04 09:00:00 21.4 8 Oeste 15 Sudoeste 0 941.5 0.3 57
2019-06-04 08:00:00 19.7 8 Sudoeste 14 Oeste 0 941.4 0.1 54
2019-06-04 07:00:00 19.7 6 Sudoeste 17 Oeste 0 941.4 -0.1 51
2019-06-04 06:00:00 20.1 6 Sudoeste 15 Sudoeste 0 941.2 -0.5 39
2019-06-04 05:00:00 20.9 7 Sudoeste 14 Sudoeste 0 941.3 -0.7 35
2019-06-04 04:00:00 21.5 6 Sudoeste 13 Sudoeste 0 941.5 -0.8 31
2019-06-04 03:00:00 22.5 6 Sudoeste 12 Sudoeste 0 941.7 -0.7 27
2019-06-04 02:00:00 23.2 3 Sudoeste 11 Sudoeste 0 942 -0.3 26
2019-06-04 01:00:00 25.2 6 Sudoeste 16 Sudoeste 0 942.3 0.6 22
2019-06-04 00:00:00 26.3 5 Oeste 21 Sudoeste 0 942.4 1.1 20
2019-06-03 23:00:00 28 10 Sudoeste 26 Oeste 0 942.3 0.9 17
2019-06-03 22:00:00 29.8 11 Sudoeste 23 Sudoeste 0 941.7 0 16
2019-06-03 21:00:00 31.5 9 Sudoeste 21 Sudoeste 0 941.3 -0.9 15
2019-06-03 20:00:00 33.4 7 Oeste 26 Noroeste 0 941.4 -1.3 13
2019-06-03 19:00:00 34.2 11 Oeste 29 Sudoeste 0 941.7 -1.6 14
2019-06-03 18:00:00 34.6 14 Oeste 39 Noroeste 0 942.2 -1.8 12
2019-06-03 17:00:00 35.1 12 Oeste 28 Sur 0 942.7 -1.8 13
2019-06-03 16:00:00 34.5 8 Sudoeste 32 Oeste 0 943.3 -1.8 14
2019-06-03 15:00:00 34 11 Sudoeste 28 Sudoeste 0 944 -1.5 15
2019-06-03 14:00:00 33.7 8 Noroeste 26 Oeste 0 944.5 -1.2 15
2019-06-03 13:00:00 32.2 4 Oeste 14 Oeste 0 945.1 -0.7 16
2019-06-03 12:00:00 30.6 7 Oeste 19 Noroeste 0 945.5 0 14
2019-06-03 11:00:00 28.5 6 Sudoeste 14 Noroeste 0 945.7 0.5 21
2019-06-03 10:00:00 25.6 8 Noroeste 18 Oeste 0 945.8 0.9 26
2019-06-03 09:00:00 22.5 8 Noroeste 16 Oeste 0 945.5 1 31
2019-06-03 08:00:00 21.4 5 Oeste 19 Sudoeste 0 945.2 0.8 31
2019-06-03 07:00:00 21.4 10 Sudoeste 19 Sudoeste 0 944.9 0.5 29
2019-06-03 06:00:00 21.8 8 Sudoeste 17 Sudoeste 0 944.5 -0.2 28
2019-06-03 05:00:00 22.9 10 Sudoeste 20 Oeste 0 944.4 -0.3 26
2019-06-03 04:00:00 23.1 9 Sudoeste 13 Sudoeste 0 944.4 -0.5 25
2019-06-03 03:00:00 23.3 4 Sudeste 12 Sudoeste 0 944.7 -0.3 26
2019-06-03 02:00:00 24.4 5 Sudoeste 12 Oeste 0 944.7 0.3 24
2019-06-03 01:00:00 25.2 3 Sudoeste 15 Sudoeste 0 944.9 1.2 23
2019-06-03 00:00:00 26 5 Sur 13 Sur 0 945 1.5 22
2019-06-02 23:00:00 27.8 3 Oeste 15 Noroeste 0 944.4 1 20
2019-06-02 22:00:00 29.6 5 Oeste 14 Oeste 0 943.7 0.2 18
2019-06-02 21:00:00 31.7 5 Oeste 17 Sudoeste 0 943.5 -0.3 15
2019-06-02 20:00:00 33.9 8 Noroeste 16 Noroeste 0 943.4 -0.8 15
2019-06-02 19:00:00 34.6 6 Noroeste 24 Sudoeste 0 943.5 -1.3 14
2019-06-02 18:00:00 35.1 4 Norte 14 Noroeste 0 943.8 -1.6 14
2019-06-02 17:00:00 35.3 4 Sudeste 21 Este 0 944.2 -2 14
2019-06-02 16:00:00 34.3 7 Este 18 Este 0 944.8 -2 16
2019-06-02 15:00:00 33.3 4 Sudoeste 14 Sudoeste 0 945.4 -1.7 16
2019-06-02 14:00:00 32.7 5 Norte 15 Sur 0 946.2 -1.1 18
2019-06-02 13:00:00 30.9 5 Sudoeste 13 Oeste 0 946.8 -0.5 19
2019-06-02 12:00:00 28.7 4 Oeste 15 Oeste 0 947.1 -0.1 22
2019-06-02 11:00:00 25.7 3 Oeste 8 Oeste 0 947.3 0.1 27
2019-06-02 10:00:00 22.3 2 Este 5 Sur 0 947.3 0.6 34
2019-06-02 09:00:00 18.2 4 Este 10 Nordeste 0 947.2 0.8 42
2019-06-02 08:00:00 15.3 2 Norte 9 Nordeste 0 947.2 1 46
2019-06-02 07:00:00 15.3 3 Nordeste 8 Norte 0 946.7 0.6 41
2019-06-02 06:00:00 16.8 3 Norte 6 Norte 0 946.4 0.1 36
2019-06-02 05:00:00 17.7 2 Norte 6 Norte 0 946.2 -0.1 33
2019-06-02 04:00:00 18.4 2 Nordeste 9 Este 0 946.1 -0.1 33
2019-06-02 03:00:00 20.2 4 Nordeste 9 Este 0 946.3 -0.1 28
2019-06-02 02:00:00 21.5 2 Norte 15 Sudeste 0 946.3 0.2 25
2019-06-02 01:00:00 22.8 8 Sudeste 17 Sudeste 0 946.2 0.6 23
2019-06-02 00:00:00 24 8 Sudeste 14 Sur 0 946.4 1 21
2019-06-01 23:00:00 25.9 8 Sudeste 17 Este 0 946.1 0.9 19
2019-06-01 22:00:00 27.7 8 Este 19 Este 0 945.6 0.3 17
2019-06-01 21:00:00 29.9 12 Este 22 Este 0 945.4 -0.2 15
2019-06-01 20:00:00 32.1 9 Nordeste 21 Nordeste 0 945.2 -0.8 15
2019-06-01 19:00:00 33.3 11 Este 29 Nordeste 0 945.3 -1.3 15
2019-06-01 18:00:00 33.5 10 Nordeste 30 Nordeste 0 945.6 -1.5 15
2019-06-01 17:00:00 33.5 10 Este 25 Este 0 946 -1.9 15
2019-06-01 16:00:00 33.4 9 Este 29 Nordeste 0 946.6 -1.9 16
2019-06-01 15:00:00 32.4 9 Este 25 Este 0 947.1 -1.8 18
2019-06-01 14:00:00 31.4 9 Este 22 Este 0 947.9 -1.2 19
2019-06-01 13:00:00 29.9 6 Nordeste 18 Este 0 948.5 -0.8 23
2019-06-01 12:00:00 27.7 7 Este 16 Este 0 948.9 -0.3 25
2019-06-01 11:00:00 24.4 5 Nordeste 14 Este 0 949.1 0.1 33
2019-06-01 10:00:00 20.6 8 Este 13 Este 0 949.3 0.7 41
2019-06-01 09:00:00 17.3 6 Nordeste 13 Nordeste 0 949.2 0.8 53
2019-06-01 08:00:00 14.3 5 Este 10 Nordeste 0 949 0.8 62
2019-06-01 07:00:00 13.5 5 Nordeste 11 Este 0 948.6 0.5 63
2019-06-01 06:00:00 14 8 Este 14 Este 0 948.4 0.4 56
2019-06-01 05:00:00 14.6 6 Nordeste 15 Nordeste 0 948.2 0.1 46
2019-06-01 04:00:00 16 5 Nordeste 12 Nordeste 0 948.1 -0.2 40
2019-06-01 03:00:00 17.4 4 Nordeste 10 Nordeste 0 948 -0.4 37
2019-06-01 02:00:00 19 2 Nordeste 6 Nordeste 0 948.1 0 33
2019-06-01 01:00:00 20.7 3 Este 12 Sur 0 948.3 0.6 30
2019-06-01 00:00:00 22.1 7 Sudeste 14 Este 0 948.4 1.1 27
2019-05-31 23:00:00 23.7 8 Este 19 Nordeste 0 948.1 1.1 24
2019-05-31 22:00:00 26.1 12 Nordeste 26 Este 0 947.7 0.5 20
2019-05-31 21:00:00 28.4 10 Nordeste 24 Este 0 947.3 -0.1 17
2019-05-31 20:00:00 30.6 12 Nordeste 25 Nordeste 0 947 -0.8 15
2019-05-31 19:00:00 32 9 Norte 28 Este 0 947.2 -1.2 13
2019-05-31 18:00:00 32.2 9 Nordeste 28 Nordeste 0 947.4 -1.5 15
2019-05-31 17:00:00 32 9 Este 31 Nordeste 0 947.8 -1.5 15
2019-05-31 16:00:00 31.1 12 Nordeste 34 Norte 0 948.4 -1.4 17
2019-05-31 15:00:00 30.5 13 Este 29 Nordeste 0 948.9 -1.3 19
2019-05-31 14:00:00 30.1 10 Nordeste 29 Este 0 949.3 -1.1 20
2019-05-31 13:00:00 28.9 11 Este 27 Este 0 949.8 -0.8 24
2019-05-31 12:00:00 26.9 12 Este 21 Nordeste 0 950.2 -0.3 26
2019-05-31 11:00:00 24 10 Nordeste 19 Nordeste 0 950.4 -0.1 34
2019-05-31 10:00:00 20.4 9 Nordeste 17 Este 0 950.6 0.5 45
2019-05-31 09:00:00 16.7 12 Este 19 Nordeste 0 950.5 0.6 55
2019-05-31 08:00:00 14 8 Nordeste 15 Este 0 950.5 0.6 63
2019-05-31 07:00:00 13.1 6 Nordeste 12 Nordeste 0 950.1 0.2 61
2019-05-31 06:00:00 13.6 6 Nordeste 14 Nordeste 0 949.9 -0.1 54
2019-05-31 05:00:00 14.7 8 Nordeste 15 Nordeste 0 949.9 -0.2 47
2019-05-31 04:00:00 15.7 5 Nordeste 13 Este 0 949.9 -0.1 43
2019-05-31 03:00:00 16.4 4 Nordeste 13 Norte 0 950 0.1 41
2019-05-31 02:00:00 18.2 5 Nordeste 10 Nordeste 0 950.1 0.3 37
2019-05-31 01:00:00 19.3 3 Este 13 Sudeste 0 950 0.8 33
2019-05-31 00:00:00 20.2 4 Este 13 Nordeste 0 949.9 1.1 33
2019-05-30 23:00:00 21.7 7 Nordeste 13 Nordeste 0 949.8 1.5 28
2019-05-30 22:00:00 24.2 7 Nordeste 25 Nordeste 0 949.2 0.8 24
2019-05-30 21:00:00 26.9 15 Nordeste 30 Nordeste 0 948.8 0.1 19
2019-05-30 20:00:00 29.1 15 Nordeste 31 Este 0 948.3 -0.8 17
2019-05-30 19:00:00 30.8 12 Este 30 Este 0 948.4 -1 16
2019-05-30 18:00:00 30.8 13 Nordeste 30 Nordeste 0 948.7 -1.4 16
2019-05-30 17:00:00 30.4 12 Este 31 Nordeste 0 949.1 -1.6 17
2019-05-30 16:00:00 29.6 12 Nordeste 34 Nordeste 0 949.4 -1.6 19
2019-05-30 15:00:00 28.2 12 Nordeste 28 Nordeste 0 950.1 -1.3 21
2019-05-30 14:00:00 26.8 12 Nordeste 29 Nordeste 0 950.7 -0.9 25
2019-05-30 13:00:00 25.4 14 Nordeste 30 Nordeste 0 951 -0.5 26
2019-05-30 12:00:00 23.8 12 Nordeste 31 Nordeste 0 951.4 -0.2 30
2019-05-30 11:00:00 22 9 Nordeste 25 Este 0 951.6 0.4 35
2019-05-30 10:00:00 19.2 13 Nordeste 28 Nordeste 0 951.5 0.8 42
2019-05-30 09:00:00 16.8 10 Nordeste 24 Nordeste 0 951.6 1.5 49
2019-05-30 08:00:00 14.1 7 Nordeste 13 Nordeste 0 951.2 1.3 56
2019-05-30 07:00:00 13.5 6 Este 11 Este 0 950.7 0.9 55
2019-05-30 06:00:00 14.6 5 Nordeste 10 Nordeste 0 950.1 0 50
2019-05-30 05:00:00 15.6 6 Nordeste 14 Nordeste 0 949.9 -0.2 45
2019-05-30 04:00:00 16.1 5 Nordeste 16 Nordeste 0 949.8 -0.1 43
2019-05-30 03:00:00 17.6 7 Este 17 Nordeste 0 950.1 0.5 38
2019-05-30 02:00:00 18 6 Este 11 Este 0 950.1 1 38
2019-05-30 01:00:00 19.1 7 Este 11 Este 0 949.9 1.6 36
2019-05-30 00:00:00 19.8 6 Este 10 Este 0 949.6 1.7 33
2019-05-29 23:00:00 21.2 5 Nordeste 10 Nordeste 0 949.1 1.6 29
2019-05-29 22:00:00 22.8 5 Nordeste 23 Nordeste 0 948.3 0.9 27
2019-05-29 21:00:00 25 12 Nordeste 31 Nordeste 0 947.9 0.5 22
2019-05-29 20:00:00 27 12 Nordeste 30 Nordeste 0 947.5 -0.2 21
2019-05-29 19:00:00 28.3 12 Norte 28 Nordeste 0 947.4 -0.5 20
2019-05-29 18:00:00 28.4 9 Nordeste 34 Nordeste 0 947.4 -0.9 20
2019-05-29 17:00:00 27.7 12 Norte 35 Norte 0 947.7 -1.1 21
2019-05-29 16:00:00 26.6 12 Nordeste 33 Nordeste 0 947.9 -1.2 22
2019-05-29 15:00:00 25.8 11 Norte 32 Norte 0 948.3 -1.1 22
2019-05-29 14:00:00 24.7 9 Nordeste 32 Norte 0 948.8 -0.9 24
2019-05-29 13:00:00 22.8 10 Nordeste 39 Este 0 949.1 -0.5 28
2019-05-29 12:00:00 20.5 14 Este 35 Nordeste 0 949.4 0.1 32
2019-05-29 11:00:00 18.3 18 Este 35 Nordeste 0 949.7 0.8 34
2019-05-29 10:00:00 16.1 19 Nordeste 39 Nordeste 0 949.6 1.6 38
2019-05-29 09:00:00 14.7 18 Nordeste 37 Este 0 949.3 1.7 39
2019-05-29 08:00:00 13.4 14 Nordeste 27 Nordeste 0 948.9 1.4 44
2019-05-29 07:00:00 12.9 11 Nordeste 20 Nordeste 0 948 0.8 46
2019-05-29 06:00:00 13.5 8 Nordeste 21 Nordeste 0 947.6 0.8 45
2019-05-29 05:00:00 14.9 13 Este 27 Nordeste 0 947.5 0.7 42
2019-05-29 04:00:00 15.9 13 Este 34 Nordeste 0 947.2 0.8 40
2019-05-29 03:00:00 16.9 17 Nordeste 31 Nordeste 0 946.8 1.2 38
2019-05-29 02:00:00 18.1 13 Nordeste 26 Nordeste 0 946.8 2.3 36
2019-05-29 01:00:00 19.2 12 Nordeste 31 Norte 0 946.4 3 31
2019-05-29 00:00:00 20.7 13 Nordeste 28 Norte 0 945.6 2.8 26
2019-05-28 23:00:00 22.9 10 Norte 24 Norte 0 944.5 2.3 23
2019-05-28 22:00:00 24.7 8 Norte 25 Norte 0 943.4 1.5 17
2019-05-28 21:00:00 26.6 8 Norte 27 Norte 0 942.8 1.2 14
2019-05-28 20:00:00 28.2 13 Norte 30 Norte 0 942.2 0.7 15
2019-05-28 19:00:00 30.2 10 Norte 28 Noroeste 0 941.9 0 16
2019-05-28 18:00:00 30.5 11 Norte 29 Noroeste 0 941.6 -0.6 19
2019-05-28 17:00:00 30.8 6 Oeste 24 Norte 0 941.5 -1 23
2019-05-28 16:00:00 30.1 5 Nordeste 24 Norte 0 941.9 -0.9 24
2019-05-28 15:00:00 29.5 8 Nordeste 27 Norte 0 942.2 -0.5 26
2019-05-28 14:00:00 28.3 11 Noroeste 24 Noroeste 0 942.5 -0.1 27
2019-05-28 13:00:00 27.5 8 Nordeste 23 Nordeste 0 942.8 0.2 32
2019-05-28 12:00:00 26.1 9 Nordeste 23 Este 0 942.7 0.3 33
2019-05-28 11:00:00 24 10 Nordeste 21 Este 0 942.6 0.7 39
2019-05-28 10:00:00 21.5 8 Nordeste 19 Nordeste 0 942.6 1.4 45
2019-05-28 09:00:00 19 10 Nordeste 18 Nordeste 0 942.4 1.3 51
2019-05-28 08:00:00 15.5 5 Este 11 Este 0 941.9 0.8 63
2019-05-28 07:00:00 15.2 6 Este 9 Nordeste 0 941.2 0.2 63
2019-05-28 06:00:00 15.8 4 Nordeste 9 Nordeste 0 941.1 0.2 60
2019-05-28 05:00:00 17 6 Nordeste 15 Este 0 941.1 0.2 56
2019-05-28 04:00:00 18.4 9 Este 17 Este 0 941 0.3 51
2019-05-28 03:00:00 19.2 7 Nordeste 15 Nordeste 0 940.9 0.8 47
2019-05-28 02:00:00 20.5 4 Norte 19 Nordeste 0 940.9 1.2 38
2019-05-28 01:00:00 22.4 10 Norte 26 Norte 0 940.7 1.5 32
2019-05-28 00:00:00 23.5 3 Norte 12 Noroeste 0 940.1 1.4 32
2019-05-27 23:00:00 25.4 6 Noroeste 14 Noroeste 0 939.7 1.1 28
2019-05-27 22:00:00 26.5 6 Noroeste 19 Norte 0 939.2 0.6 28
2019-05-27 21:00:00 28.3 12 Noroeste 26 Noroeste 0 938.7 -0.2 23
2019-05-27 20:00:00 28.7 10 Noroeste 32 Oeste 0 938.6 -0.5 23
2019-05-27 19:00:00 29.8 14 Noroeste 35 Noroeste 0 938.6 -1.2 21
2019-05-27 18:00:00 30.4 14 Noroeste 40 Noroeste 0 938.9 -1.6 20
2019-05-27 17:00:00 30.9 9 Noroeste 32 Noroeste 0 939.1 -2.2 20
2019-05-27 16:00:00 29.7 9 Oeste 28 Noroeste 0 939.8 -2.4 21
2019-05-27 15:00:00 30 15 Noroeste 33 Noroeste 0 940.5 -2.2 22
2019-05-27 14:00:00 29.2 6 Oeste 18 Sudoeste 0 941.3 -1.6 24
2019-05-27 13:00:00 27.7 3 Norte 11 Sudoeste 0 942.2 -1.1 26
2019-05-27 12:00:00 26.1 6 Sudeste 13 Sudeste 0 942.7 -0.6 29
2019-05-27 11:00:00 24 5 Este 14 Este 0 942.9 -0.1 30
2019-05-27 10:00:00 21.3 5 Sudeste 9 Sudeste 0 943.3 0.6 32
2019-05-27 09:00:00 18.9 5 Sudeste 9 Sudeste 0 943.3 0.7 38
2019-05-27 08:00:00 15.1 0 Calma 4 Sudeste 0 943 0.2 54
2019-05-27 07:00:00 13.8 4 Este 6 Nordeste 0 942.7 -0.3 50
2019-05-27 06:00:00 14.2 0 Calma 4 Noroeste 0 942.6 -0.9 51
2019-05-27 05:00:00 15.1 0 Calma 7 Norte 0 942.8 -0.9 47
2019-05-27 04:00:00 16.4 5 Nordeste 8 Nordeste 0 943 -0.7 43
2019-05-27 03:00:00 16.7 3 Norte 6 Norte 0 943.5 -0.2 44
2019-05-27 02:00:00 17.6 2 Este 15 Nordeste 0 943.7 0.1 40
2019-05-27 01:00:00 19.9 5 Noroeste 17 Noroeste 0 943.7 0.5 33
2019-05-27 00:00:00 19.8 0 Calma -- -- 0 943.7 0.6 34
2019-05-26 23:00:00 21.1 0 Calma 6 Nordeste 0 943.6 0.6 30
2019-05-26 22:00:00 22.9 4 Nordeste 15 Nordeste 0 943.2 0.1 26
2019-05-26 21:00:00 25 9 Nordeste 22 Norte 0 943.1 -0.1 21
2019-05-26 20:00:00 26.6 9 Norte 30 Norte 0 943 -0.6 19
2019-05-26 19:00:00 28 11 Norte 27 Norte 0 943.1 -0.9 17
2019-05-26 18:00:00 28.3 10 Norte 30 Nordeste 0 943.2 -1.5 15
2019-05-26 17:00:00 27.6 10 Norte 35 Noroeste 0 943.6 -1.6 16
2019-05-26 16:00:00 27.1 5 Sudoeste 25 Noroeste 0 944 -1.7 19
2019-05-26 15:00:00 25.6 8 Norte 32 Noroeste 0 944.7 -1.5 23
2019-05-26 14:00:00 24.2 9 Norte 28 Nordeste 0 945.2 -1.1 22
2019-05-26 13:00:00 23.4 7 Norte 26 Nordeste 0 945.7 -1 24
2019-05-26 12:00:00 22.1 7 Nordeste 22 Nordeste 0 946.2 -0.4 28
2019-05-26 11:00:00 20.5 9 Nordeste 27 Norte 0 946.3 -0.1 28
2019-05-26 10:00:00 18.6 10 Nordeste 24 Nordeste 0 946.7 0.7 34
2019-05-26 09:00:00 16.2 9 Norte 24 Norte 0 946.6 0.8 49
2019-05-26 08:00:00 14.2 10 Norte 19 Nordeste 0 946.4 0.8 57
2019-05-26 07:00:00 14.4 11 Norte 20 Norte 0 946 0.4 55
2019-05-26 06:00:00 14.5 6 Nordeste 14 Nordeste 0 945.8 0 54
2019-05-26 05:00:00 15.1 4 Este 10 Norte 0 945.6 -0.4 51
2019-05-26 04:00:00 15.5 3 Nordeste 7 Norte 0 945.6 -0.4 49
2019-05-26 03:00:00 16.4 4 Norte 12 Norte 0 945.8 0 45
2019-05-26 02:00:00 17.1 6 Noroeste 10 Noroeste 0 946 0.5 43
2019-05-26 01:00:00 18 4 Norte 13 Noroeste 0 946 0.9 41
2019-05-26 00:00:00 18.3 4 Noroeste 7 Noroeste 0 945.8 1.3 40
2019-05-25 23:00:00 19.6 3 Norte 8 Norte 0 945.5 1.3 36
2019-05-25 22:00:00 21 3 Norte 15 Nordeste 0 945.1 0.9 31
2019-05-25 21:00:00 22.8 7 Nordeste 22 Norte 0 944.5 0.3 27
2019-05-25 20:00:00 24.3 9 Norte 28 Nordeste 0 944.2 -0.2 24
2019-05-25 19:00:00 25.9 8 Nordeste 26 Noroeste 0 944.2 -0.4 24
2019-05-25 18:00:00 25.4 10 Norte 26 Norte 0 944.2 -0.9 26
2019-05-25 17:00:00 25.3 13 Norte 34 Noroeste 0 944.4 -1.1 25
2019-05-25 16:00:00 25 13 Nordeste 31 Nordeste 0 944.6 -1.1 29
2019-05-25 15:00:00 23.6 11 Norte 28 Nordeste 0 945.1 -0.8 29
2019-05-25 14:00:00 22.6 14 Nordeste 39 Nordeste 0 945.5 -0.5 34
2019-05-25 13:00:00 21 14 Norte 32 Nordeste 0 945.7 -0.1 36
2019-05-25 12:00:00 20.1 14 Nordeste 30 Nordeste 0 945.9 0.3 38
2019-05-25 11:00:00 18.4 8 Norte 23 Nordeste 0 946 0.7 44
2019-05-25 10:00:00 17.4 12 Nordeste 29 Nordeste 0 945.8 1.1 47
2019-05-25 09:00:00 15.2 11 Nordeste 30 Nordeste 0 945.6 1.1 55
2019-05-25 08:00:00 12.7 11 Norte 26 Norte 0 945.3 0.9 64
2019-05-25 07:00:00 11.6 13 Nordeste 26 Nordeste 0 944.7 0.6 67
2019-05-25 06:00:00 12.3 10 Norte 26 Nordeste 0 944.5 0.5 64
2019-05-25 05:00:00 13.2 8 Norte 22 Noroeste 0 944.4 0.5 61
2019-05-25 04:00:00 13.5 4 Nordeste 17 Nordeste 0 944.1 0 71
2019-05-25 03:00:00 14.3 8 Nordeste 20 Nordeste 0 944 0.7 70
2019-05-25 02:00:00 15.2 8 Nordeste 19 Nordeste 0 943.9 1.3 69
2019-05-25 01:00:00 16.3 9 Nordeste 22 Nordeste 0 944.1 2.5 68
2019-05-25 00:00:00 17.3 11 Nordeste 22 Nordeste 0 943.3 2.3 62